sensor_id;sensor_type;location;lat;lon;timestamp;temperature;humidity
48734;DHT22;34530;52.084;5.146;2022-12-19T00:01:29;12.00;64.60
48734;DHT22;34530;52.084;5.146;2022-12-19T00:04:00;12.00;64.60
48734;DHT22;34530;52.084;5.146;2022-12-19T00:06:27;11.90;64.60
48734;DHT22;34530;52.084;5.146;2022-12-19T00:08:54;11.90;64.60
48734;DHT22;34530;52.084;5.146;2022-12-19T00:11:21;11.90;64.60
48734;DHT22;34530;52.084;5.146;2022-12-19T00:13:48;11.90;64.60
48734;DHT22;34530;52.084;5.146;2022-12-19T00:16:16;11.90;64.60
48734;DHT22;34530;52.084;5.146;2022-12-19T00:18:43;11.90;64.60
48734;DHT22;34530;52.084;5.146;2022-12-19T00:21:11;11.90;64.70
48734;DHT22;34530;52.084;5.146;2022-12-19T00:23:38;11.90;64.60
48734;DHT22;34530;52.084;5.146;2022-12-19T00:26:09;11.90;64.60
48734;DHT22;34530;52.084;5.146;2022-12-19T00:28:35;11.90;64.60
48734;DHT22;34530;52.084;5.146;2022-12-19T00:31:02;11.90;64.60
48734;DHT22;34530;52.084;5.146;2022-12-19T00:33:29;11.90;64.60
48734;DHT22;34530;52.084;5.146;2022-12-19T00:35:58;11.80;64.50
48734;DHT22;34530;52.084;5.146;2022-12-19T00:38:25;11.80;64.50
48734;DHT22;34530;52.084;5.146;2022-12-19T00:40:50;11.80;64.50
48734;DHT22;34530;52.084;5.146;2022-12-19T00:43:16;11.80;64.50
48734;DHT22;34530;52.084;5.146;2022-12-19T00:45:42;11.80;64.50
48734;DHT22;34530;52.084;5.146;2022-12-19T00:48:07;11.80;64.60
48734;DHT22;34530;52.084;5.146;2022-12-19T00:50:33;11.80;64.60
48734;DHT22;34530;52.084;5.146;2022-12-19T00:52:59;11.80;64.60
48734;DHT22;34530;52.084;5.146;2022-12-19T00:55:24;11.80;64.60
48734;DHT22;34530;52.084;5.146;2022-12-19T00:57:50;11.80;64.60
48734;DHT22;34530;52.084;5.146;2022-12-19T01:00:16;11.80;64.60
48734;DHT22;34530;52.084;5.146;2022-12-19T01:02:42;11.80;64.70
48734;DHT22;34530;52.084;5.146;2022-12-19T01:05:08;11.80;64.60
48734;DHT22;34530;52.084;5.146;2022-12-19T01:07:34;11.80;64.70
48734;DHT22;34530;52.084;5.146;2022-12-19T01:10:00;11.70;64.60
48734;DHT22;34530;52.084;5.146;2022-12-19T01:12:26;11.70;64.60
48734;DHT22;34530;52.084;5.146;2022-12-19T01:15:10;11.70;64.60
48734;DHT22;34530;52.084;5.146;2022-12-19T01:17:36;11.80;64.70
48734;DHT22;34530;52.084;5.146;2022-12-19T01:20:02;11.70;64.70
48734;DHT22;34530;52.084;5.146;2022-12-19T01:22:28;11.70;64.70
48734;DHT22;34530;52.084;5.146;2022-12-19T01:24:54;11.70;64.70
48734;DHT22;34530;52.084;5.146;2022-12-19T01:27:19;11.70;64.70
48734;DHT22;34530;52.084;5.146;2022-12-19T01:29:45;11.70;64.80
48734;DHT22;34530;52.084;5.146;2022-12-19T01:32:11;11.70;64.80
48734;DHT22;34530;52.084;5.146;2022-12-19T01:34:36;11.70;64.80
48734;DHT22;34530;52.084;5.146;2022-12-19T01:37:02;11.70;64.80
48734;DHT22;34530;52.084;5.146;2022-12-19T01:39:27;11.70;64.90
48734;DHT22;34530;52.084;5.146;2022-12-19T01:41:53;11.70;64.80
48734;DHT22;34530;52.084;5.146;2022-12-19T01:44:23;11.70;64.90
48734;DHT22;34530;52.084;5.146;2022-12-19T01:46:51;11.70;64.90
48734;DHT22;34530;52.084;5.146;2022-12-19T01:49:30;11.70;64.90
48734;DHT22;34530;52.084;5.146;2022-12-19T01:52:03;11.70;65.00
48734;DHT22;34530;52.084;5.146;2022-12-19T01:54:33;11.70;65.00
48734;DHT22;34530;52.084;5.146;2022-12-19T01:57:00;11.70;65.00
48734;DHT22;34530;52.084;5.146;2022-12-19T02:02:14;11.60;64.90
48734;DHT22;34530;52.084;5.146;2022-12-19T02:04:41;11.60;64.90
48734;DHT22;34530;52.084;5.146;2022-12-19T02:07:07;11.60;65.00
48734;DHT22;34530;52.084;5.146;2022-12-19T02:09:35;11.60;64.90
48734;DHT22;34530;52.084;5.146;2022-12-19T02:12:01;11.60;64.90
48734;DHT22;34530;52.084;5.146;2022-12-19T02:14:27;11.60;64.90
48734;DHT22;34530;52.084;5.146;2022-12-19T02:20:07;11.60;64.90
48734;DHT22;34530;52.084;5.146;2022-12-19T02:23:01;11.60;64.90
48734;DHT22;34530;52.084;5.146;2022-12-19T02:29:15;11.60;64.90
48734;DHT22;34530;52.084;5.146;2022-12-19T02:31:37;11.60;64.90
48734;DHT22;34530;52.084;5.146;2022-12-19T02:36:52;11.50;64.90
48734;DHT22;34530;52.084;5.146;2022-12-19T02:39:49;11.50;65.00
48734;DHT22;34530;52.084;5.146;2022-12-19T02:42:24;11.50;64.90
48734;DHT22;34530;52.084;5.146;2022-12-19T02:44:51;11.50;65.00
48734;DHT22;34530;52.084;5.146;2022-12-19T02:47:19;11.50;65.00
48734;DHT22;34530;52.084;5.146;2022-12-19T02:49:45;11.50;65.00
48734;DHT22;34530;52.084;5.146;2022-12-19T02:54:49;11.50;65.00
48734;DHT22;34530;52.084;5.146;2022-12-19T03:05:16;11.50;65.00
48734;DHT22;34530;52.084;5.146;2022-12-19T03:08:00;11.50;65.10
48734;DHT22;34530;52.084;5.146;2022-12-19T03:10:34;11.50;65.00
48734;DHT22;34530;52.084;5.146;2022-12-19T03:13:08;11.50;65.10
48734;DHT22;34530;52.084;5.146;2022-12-19T03:15:34;11.50;65.10
48734;DHT22;34530;52.084;5.146;2022-12-19T03:18:00;11.50;65.10
48734;DHT22;34530;52.084;5.146;2022-12-19T03:23:11;11.50;65.10
48734;DHT22;34530;52.084;5.146;2022-12-19T03:25:37;11.40;65.10
48734;DHT22;34530;52.084;5.146;2022-12-19T03:28:11;11.50;65.10
48734;DHT22;34530;52.084;5.146;2022-12-19T03:30:40;11.40;65.00
48734;DHT22;34530;52.084;5.146;2022-12-19T03:33:09;11.50;65.10
48734;DHT22;34530;52.084;5.146;2022-12-19T03:35:37;11.40;65.10
48734;DHT22;34530;52.084;5.146;2022-12-19T03:38:03;11.40;65.10
48734;DHT22;34530;52.084;5.146;2022-12-19T03:40:32;11.40;65.10
48734;DHT22;34530;52.084;5.146;2022-12-19T03:43:02;11.40;65.10
48734;DHT22;34530;52.084;5.146;2022-12-19T03:56:40;11.40;65.10
48734;DHT22;34530;52.084;5.146;2022-12-19T03:59:16;11.40;65.20
48734;DHT22;34530;52.084;5.146;2022-12-19T04:01:44;11.40;65.20
48734;DHT22;34530;52.084;5.146;2022-12-19T04:04:11;11.40;65.20
48734;DHT22;34530;52.084;5.146;2022-12-19T04:06:39;11.40;65.30
48734;DHT22;34530;52.084;5.146;2022-12-19T04:09:07;11.40;65.30
48734;DHT22;34530;52.084;5.146;2022-12-19T04:11:39;11.40;65.20
48734;DHT22;34530;52.084;5.146;2022-12-19T04:14:14;11.40;65.20
48734;DHT22;34530;52.084;5.146;2022-12-19T04:19:24;11.40;65.20
48734;DHT22;34530;52.084;5.146;2022-12-19T04:22:00;11.40;65.30
48734;DHT22;34530;52.084;5.146;2022-12-19T04:24:33;11.40;65.50
48734;DHT22;34530;52.084;5.146;2022-12-19T04:27:01;11.40;65.30
48734;DHT22;34530;52.084;5.146;2022-12-19T04:29:30;11.40;65.30
48734;DHT22;34530;52.084;5.146;2022-12-19T04:31:56;11.40;65.30
48734;DHT22;34530;52.084;5.146;2022-12-19T04:34:22;11.40;65.30
48734;DHT22;34530;52.084;5.146;2022-12-19T04:36:49;11.40;65.40
48734;DHT22;34530;52.084;5.146;2022-12-19T04:39:15;11.40;65.30
48734;DHT22;34530;52.084;5.146;2022-12-19T04:41:40;11.40;65.30
48734;DHT22;34530;52.084;5.146;2022-12-19T04:44:06;11.40;65.40
48734;DHT22;34530;52.084;5.146;2022-12-19T04:46:32;11.40;65.30
48734;DHT22;34530;52.084;5.146;2022-12-19T04:48:58;11.40;65.30
48734;DHT22;34530;52.084;5.146;2022-12-19T04:51:23;11.40;65.40
48734;DHT22;34530;52.084;5.146;2022-12-19T04:53:49;11.40;65.30
48734;DHT22;34530;52.084;5.146;2022-12-19T04:56:15;11.40;65.30
48734;DHT22;34530;52.084;5.146;2022-12-19T04:58:40;11.40;65.30
48734;DHT22;34530;52.084;5.146;2022-12-19T05:01:07;11.50;65.40
48734;DHT22;34530;52.084;5.146;2022-12-19T05:03:34;11.50;65.40
48734;DHT22;34530;52.084;5.146;2022-12-19T05:06:11;11.50;65.40
48734;DHT22;34530;52.084;5.146;2022-12-19T05:08:38;11.50;65.40
48734;DHT22;34530;52.084;5.146;2022-12-19T05:11:05;11.50;65.40
48734;DHT22;34530;52.084;5.146;2022-12-19T05:13:31;11.50;65.40
48734;DHT22;34530;52.084;5.146;2022-12-19T05:15:59;11.50;65.40
48734;DHT22;34530;52.084;5.146;2022-12-19T05:18:25;11.50;65.40
48734;DHT22;34530;52.084;5.146;2022-12-19T05:20:51;11.50;65.40
48734;DHT22;34530;52.084;5.146;2022-12-19T05:23:17;11.50;65.40
48734;DHT22;34530;52.084;5.146;2022-12-19T05:25:43;11.50;65.30
48734;DHT22;34530;52.084;5.146;2022-12-19T05:28:08;11.50;65.40
48734;DHT22;34530;52.084;5.146;2022-12-19T05:30:34;11.60;65.40
48734;DHT22;34530;52.084;5.146;2022-12-19T05:32:59;11.60;65.40
48734;DHT22;34530;52.084;5.146;2022-12-19T05:35:26;11.60;65.30
48734;DHT22;34530;52.084;5.146;2022-12-19T05:37:51;11.60;65.40
48734;DHT22;34530;52.084;5.146;2022-12-19T05:40:17;11.60;65.30
48734;DHT22;34530;52.084;5.146;2022-12-19T05:42:42;11.60;65.30
48734;DHT22;34530;52.084;5.146;2022-12-19T05:45:08;11.60;65.30
48734;DHT22;34530;52.084;5.146;2022-12-19T05:47:34;11.70;65.40
48734;DHT22;34530;52.084;5.146;2022-12-19T05:49:59;11.70;65.40
48734;DHT22;34530;52.084;5.146;2022-12-19T05:52:25;11.70;65.30
48734;DHT22;34530;52.084;5.146;2022-12-19T05:54:50;11.70;65.30
48734;DHT22;34530;52.084;5.146;2022-12-19T05:57:16;11.70;65.30
48734;DHT22;34530;52.084;5.146;2022-12-19T05:59:42;11.70;65.30
48734;DHT22;34530;52.084;5.146;2022-12-19T06:02:07;11.70;65.30
48734;DHT22;34530;52.084;5.146;2022-12-19T06:04:37;11.70;65.30
48734;DHT22;34530;52.084;5.146;2022-12-19T06:07:03;11.80;65.30
48734;DHT22;34530;52.084;5.146;2022-12-19T06:09:29;11.80;65.30
48734;DHT22;34530;52.084;5.146;2022-12-19T06:11:55;11.80;65.30
48734;DHT22;34530;52.084;5.146;2022-12-19T06:14:20;11.80;65.30
48734;DHT22;34530;52.084;5.146;2022-12-19T06:16:46;11.80;65.30
48734;DHT22;34530;52.084;5.146;2022-12-19T06:19:12;11.80;65.30
48734;DHT22;34530;52.084;5.146;2022-12-19T06:21:37;11.80;65.20
48734;DHT22;34530;52.084;5.146;2022-12-19T06:24:03;11.90;65.20
48734;DHT22;34530;52.084;5.146;2022-12-19T06:26:29;11.90;65.30
48734;DHT22;34530;52.084;5.146;2022-12-19T06:28:55;11.90;65.30
48734;DHT22;34530;52.084;5.146;2022-12-19T06:31:22;11.90;65.40
48734;DHT22;34530;52.084;5.146;2022-12-19T06:33:49;11.90;65.30
48734;DHT22;34530;52.084;5.146;2022-12-19T06:36:15;11.90;65.30
48734;DHT22;34530;52.084;5.146;2022-12-19T06:38:42;11.90;65.40
48734;DHT22;34530;52.084;5.146;2022-12-19T06:41:09;12.00;65.30
48734;DHT22;34530;52.084;5.146;2022-12-19T06:43:57;12.00;65.40
48734;DHT22;34530;52.084;5.146;2022-12-19T06:46:22;12.00;65.30
48734;DHT22;34530;52.084;5.146;2022-12-19T06:48:48;12.00;65.30
48734;DHT22;34530;52.084;5.146;2022-12-19T06:51:14;12.00;65.30
48734;DHT22;34530;52.084;5.146;2022-12-19T06:53:39;12.00;65.20
48734;DHT22;34530;52.084;5.146;2022-12-19T06:56:06;12.00;65.20
48734;DHT22;34530;52.084;5.146;2022-12-19T06:58:32;12.10;65.30
48734;DHT22;34530;52.084;5.146;2022-12-19T07:00:58;12.10;65.30
48734;DHT22;34530;52.084;5.146;2022-12-19T07:03:28;12.10;65.30
48734;DHT22;34530;52.084;5.146;2022-12-19T07:05:55;12.10;65.30
48734;DHT22;34530;52.084;5.146;2022-12-19T07:08:20;12.10;65.20
48734;DHT22;34530;52.084;5.146;2022-12-19T07:10:46;12.10;65.20
48734;DHT22;34530;52.084;5.146;2022-12-19T07:13:12;12.20;65.20
48734;DHT22;34530;52.084;5.146;2022-12-19T07:15:38;12.20;65.20
48734;DHT22;34530;52.084;5.146;2022-12-19T07:18:05;12.20;65.30
48734;DHT22;34530;52.084;5.146;2022-12-19T07:20:32;12.20;65.30
48734;DHT22;34530;52.084;5.146;2022-12-19T07:22:58;12.10;65.20
48734;DHT22;34530;52.084;5.146;2022-12-19T07:25:24;12.20;65.20
48734;DHT22;34530;52.084;5.146;2022-12-19T07:27:51;12.20;65.30
48734;DHT22;34530;52.084;5.146;2022-12-19T07:30:16;12.20;65.20
48734;DHT22;34530;52.084;5.146;2022-12-19T07:32:42;12.20;65.20
48734;DHT22;34530;52.084;5.146;2022-12-19T07:35:08;12.20;65.20
48734;DHT22;34530;52.084;5.146;2022-12-19T07:37:34;12.20;65.20
48734;DHT22;34530;52.084;5.146;2022-12-19T07:40:00;12.20;65.30
48734;DHT22;34530;52.084;5.146;2022-12-19T07:42:25;12.20;65.40
48734;DHT22;34530;52.084;5.146;2022-12-19T07:44:51;12.30;65.50
48734;DHT22;34530;52.084;5.146;2022-12-19T07:47:17;12.30;65.50
48734;DHT22;34530;52.084;5.146;2022-12-19T07:49:42;12.50;66.10
48734;DHT22;34530;52.084;5.146;2022-12-19T07:52:08;12.60;67.00
48734;DHT22;34530;52.084;5.146;2022-12-19T07:54:34;12.70;68.00
48734;DHT22;34530;52.084;5.146;2022-12-19T07:57:00;12.90;68.10
48734;DHT22;34530;52.084;5.146;2022-12-19T07:59:26;13.00;68.20
48734;DHT22;34530;52.084;5.146;2022-12-19T08:01:52;13.20;68.40
48734;DHT22;34530;52.084;5.146;2022-12-19T08:04:17;13.40;68.60
48734;DHT22;34530;52.084;5.146;2022-12-19T08:06:43;13.50;68.60
48734;DHT22;34530;52.084;5.146;2022-12-19T08:09:10;13.70;68.80
48734;DHT22;34530;52.084;5.146;2022-12-19T08:11:36;13.80;68.90
48734;DHT22;34530;52.084;5.146;2022-12-19T08:14:02;13.90;69.00
48734;DHT22;34530;52.084;5.146;2022-12-19T08:16:28;14.10;69.10
48734;DHT22;34530;52.084;5.146;2022-12-19T08:18:53;14.20;69.00
48734;DHT22;34530;52.084;5.146;2022-12-19T08:21:20;14.40;69.60
48734;DHT22;34530;52.084;5.146;2022-12-19T08:23:46;14.50;69.40
48734;DHT22;34530;52.084;5.146;2022-12-19T08:26:13;14.70;69.00
48734;DHT22;34530;52.084;5.146;2022-12-19T08:28:40;14.80;69.60
48734;DHT22;34530;52.084;5.146;2022-12-19T08:31:12;14.80;68.60
48734;DHT22;34530;52.084;5.146;2022-12-19T08:33:39;15.00;68.50
48734;DHT22;34530;52.084;5.146;2022-12-19T08:36:09;15.20;68.70
48734;DHT22;34530;52.084;5.146;2022-12-19T08:38:36;15.30;68.50
48734;DHT22;34530;52.084;5.146;2022-12-19T08:41:02;15.30;68.30
48734;DHT22;34530;52.084;5.146;2022-12-19T08:43:28;15.40;68.10
48734;DHT22;34530;52.084;5.146;2022-12-19T08:45:55;15.50;68.10
48734;DHT22;34530;52.084;5.146;2022-12-19T08:48:20;15.60;68.10
48734;DHT22;34530;52.084;5.146;2022-12-19T08:50:51;15.70;68.10
48734;DHT22;34530;52.084;5.146;2022-12-19T08:53:16;15.80;68.10
48734;DHT22;34530;52.084;5.146;2022-12-19T08:55:42;15.90;68.10
48734;DHT22;34530;52.084;5.146;2022-12-19T08:58:08;15.90;68.00
48734;DHT22;34530;52.084;5.146;2022-12-19T09:00:33;16.00;68.00
48734;DHT22;34530;52.084;5.146;2022-12-19T09:02:59;16.10;68.60
48734;DHT22;34530;52.084;5.146;2022-12-19T09:05:24;16.10;68.20
48734;DHT22;34530;52.084;5.146;2022-12-19T09:07:50;16.20;68.10
48734;DHT22;34530;52.084;5.146;2022-12-19T09:10:15;16.30;68.20
48734;DHT22;34530;52.084;5.146;2022-12-19T09:12:44;16.40;68.20
48734;DHT22;34530;52.084;5.146;2022-12-19T09:15:10;16.40;68.10
48734;DHT22;34530;52.084;5.146;2022-12-19T09:17:35;16.50;68.00
48734;DHT22;34530;52.084;5.146;2022-12-19T09:20:01;16.50;67.80
48734;DHT22;34530;52.084;5.146;2022-12-19T09:22:27;16.60;67.80
48734;DHT22;34530;52.084;5.146;2022-12-19T09:24:52;16.70;67.80
48734;DHT22;34530;52.084;5.146;2022-12-19T09:27:18;16.80;67.80
48734;DHT22;34530;52.084;5.146;2022-12-19T09:29:44;16.90;67.80
48734;DHT22;34530;52.084;5.146;2022-12-19T09:32:10;16.90;67.40
48734;DHT22;34530;52.084;5.146;2022-12-19T09:34:36;17.00;67.10
48734;DHT22;34530;52.084;5.146;2022-12-19T09:37:03;17.00;66.80
48734;DHT22;34530;52.084;5.146;2022-12-19T09:39:28;17.10;66.60
48734;DHT22;34530;52.084;5.146;2022-12-19T09:42:06;17.00;66.50
48734;DHT22;34530;52.084;5.146;2022-12-19T09:45:09;17.10;66.60
48734;DHT22;34530;52.084;5.146;2022-12-19T09:47:42;17.10;66.50
48734;DHT22;34530;52.084;5.146;2022-12-19T09:50:54;17.20;66.40
48734;DHT22;34530;52.084;5.146;2022-12-19T09:53:30;17.20;66.40
48734;DHT22;34530;52.084;5.146;2022-12-19T09:55:58;17.30;66.40
48734;DHT22;34530;52.084;5.146;2022-12-19T09:58:39;17.30;66.30
48734;DHT22;34530;52.084;5.146;2022-12-19T10:01:16;17.30;66.10
48734;DHT22;34530;52.084;5.146;2022-12-19T10:03:46;17.40;66.00
48734;DHT22;34530;52.084;5.146;2022-12-19T10:06:21;17.40;65.90
48734;DHT22;34530;52.084;5.146;2022-12-19T10:08:47;17.50;65.80
48734;DHT22;34530;52.084;5.146;2022-12-19T10:19:02;17.60;65.50
48734;DHT22;34530;52.084;5.146;2022-12-19T10:21:39;17.60;65.30
48734;DHT22;34530;52.084;5.146;2022-12-19T10:26:50;17.70;65.20
48734;DHT22;34530;52.084;5.146;2022-12-19T10:29:29;17.70;65.10
48734;DHT22;34530;52.084;5.146;2022-12-19T10:34:40;17.80;65.10
48734;DHT22;34530;52.084;5.146;2022-12-19T10:37:18;17.80;65.10
48734;DHT22;34530;52.084;5.146;2022-12-19T10:39:58;17.80;65.20
48734;DHT22;34530;52.084;5.146;2022-12-19T10:45:18;17.90;65.50
48734;DHT22;34530;52.084;5.146;2022-12-19T10:47:53;17.90;65.60
48734;DHT22;34530;52.084;5.146;2022-12-19T10:50:23;17.90;65.70
48734;DHT22;34530;52.084;5.146;2022-12-19T10:55:44;18.00;65.70
48734;DHT22;34530;52.084;5.146;2022-12-19T10:58:36;18.00;65.60
48734;DHT22;34530;52.084;5.146;2022-12-19T11:01:03;18.10;65.50
48734;DHT22;34530;52.084;5.146;2022-12-19T11:03:31;18.10;65.00
48734;DHT22;34530;52.084;5.146;2022-12-19T11:05:59;18.10;65.10
48734;DHT22;34530;52.084;5.146;2022-12-19T11:08:27;18.10;65.00
48734;DHT22;34530;52.084;5.146;2022-12-19T11:13:37;18.00;64.80
48734;DHT22;34530;52.084;5.146;2022-12-19T11:16:05;18.00;64.70
48734;DHT22;34530;52.084;5.146;2022-12-19T11:18:39;18.00;64.80
48734;DHT22;34530;52.084;5.146;2022-12-19T11:23:48;17.90;64.80
48734;DHT22;34530;52.084;5.146;2022-12-19T11:31:57;17.80;64.90
48734;DHT22;34530;52.084;5.146;2022-12-19T11:34:25;17.70;65.00
48734;DHT22;34530;52.084;5.146;2022-12-19T11:42:49;17.60;65.30
48734;DHT22;34530;52.084;5.146;2022-12-19T11:45:20;17.60;65.40
48734;DHT22;34530;52.084;5.146;2022-12-19T11:47:59;17.50;65.50
48734;DHT22;34530;52.084;5.146;2022-12-19T11:50:34;17.50;65.60
48734;DHT22;34530;52.084;5.146;2022-12-19T11:53:14;17.40;65.60
48734;DHT22;34530;52.084;5.146;2022-12-19T11:55:54;17.50;65.70
48734;DHT22;34530;52.084;5.146;2022-12-19T11:58:24;17.50;65.80
48734;DHT22;34530;52.084;5.146;2022-12-19T12:01:11;17.50;65.70
48734;DHT22;34530;52.084;5.146;2022-12-19T12:04:16;17.50;65.70
48734;DHT22;34530;52.084;5.146;2022-12-19T12:06:39;17.50;65.40
48734;DHT22;34530;52.084;5.146;2022-12-19T12:12:04;17.30;66.10
48734;DHT22;34530;52.084;5.146;2022-12-19T12:14:53;17.20;65.50
48734;DHT22;34530;52.084;5.146;2022-12-19T12:17:31;17.20;65.80
48734;DHT22;34530;52.084;5.146;2022-12-19T12:20:36;17.10;66.10
48734;DHT22;34530;52.084;5.146;2022-12-19T12:25:51;16.90;66.40
48734;DHT22;34530;52.084;5.146;2022-12-19T12:45:37;16.60;67.40
48734;DHT22;34530;52.084;5.146;2022-12-19T12:50:46;16.50;67.80
48734;DHT22;34530;52.084;5.146;2022-12-19T12:53:15;16.40;67.90
48734;DHT22;34530;52.084;5.146;2022-12-19T12:55:42;16.40;68.10
48734;DHT22;34530;52.084;5.146;2022-12-19T13:04:02;16.20;68.70
48734;DHT22;34530;52.084;5.146;2022-12-19T13:06:39;16.20;69.30
48734;DHT22;34530;52.084;5.146;2022-12-19T13:11:35;16.20;69.70
48734;DHT22;34530;52.084;5.146;2022-12-19T13:17:05;16.10;69.90
48734;DHT22;34530;52.084;5.146;2022-12-19T13:19:33;16.10;70.10
48734;DHT22;34530;52.084;5.146;2022-12-19T13:27:33;16.00;70.50
48734;DHT22;34530;52.084;5.146;2022-12-19T13:32:31;15.90;70.70
48734;DHT22;34530;52.084;5.146;2022-12-19T13:35:01;15.90;70.90
48734;DHT22;34530;52.084;5.146;2022-12-19T13:42:23;15.90;71.30
48734;DHT22;34530;52.084;5.146;2022-12-19T13:45:23;15.90;71.30
48734;DHT22;34530;52.084;5.146;2022-12-19T13:47:50;15.90;71.50
48734;DHT22;34530;52.084;5.146;2022-12-19T13:50:37;15.80;71.50
48734;DHT22;34530;52.084;5.146;2022-12-19T13:53:13;15.90;71.70
48734;DHT22;34530;52.084;5.146;2022-12-19T13:55:39;15.80;72.00
48734;DHT22;34530;52.084;5.146;2022-12-19T13:58:04;15.80;72.20
48734;DHT22;34530;52.084;5.146;2022-12-19T14:00:38;15.80;72.20
48734;DHT22;34530;52.084;5.146;2022-12-19T14:03:12;15.80;72.20
48734;DHT22;34530;52.084;5.146;2022-12-19T14:05:39;15.80;72.30
48734;DHT22;34530;52.084;5.146;2022-12-19T14:08:06;15.80;72.40
48734;DHT22;34530;52.084;5.146;2022-12-19T14:10:34;15.80;72.50
48734;DHT22;34530;52.084;5.146;2022-12-19T14:13:06;15.80;72.60
48734;DHT22;34530;52.084;5.146;2022-12-19T14:15:53;15.80;72.60
48734;DHT22;34530;52.084;5.146;2022-12-19T14:18:26;15.70;72.60
48734;DHT22;34530;52.084;5.146;2022-12-19T14:21:17;15.70;72.70
48734;DHT22;34530;52.084;5.146;2022-12-19T14:23:43;15.70;72.70
48734;DHT22;34530;52.084;5.146;2022-12-19T14:26:24;15.70;72.80
48734;DHT22;34530;52.084;5.146;2022-12-19T14:28:59;15.70;72.90
48734;DHT22;34530;52.084;5.146;2022-12-19T14:31:26;15.70;72.90
48734;DHT22;34530;52.084;5.146;2022-12-19T14:33:53;15.70;72.90
48734;DHT22;34530;52.084;5.146;2022-12-19T14:36:24;15.70;72.90
48734;DHT22;34530;52.084;5.146;2022-12-19T14:38:50;15.70;72.90
48734;DHT22;34530;52.084;5.146;2022-12-19T14:44:17;15.70;73.00
48734;DHT22;34530;52.084;5.146;2022-12-19T14:47:02;15.70;73.10
48734;DHT22;34530;52.084;5.146;2022-12-19T14:49:33;15.70;73.10
48734;DHT22;34530;52.084;5.146;2022-12-19T14:52:02;15.70;73.10
48734;DHT22;34530;52.084;5.146;2022-12-19T14:54:28;15.70;73.10
48734;DHT22;34530;52.084;5.146;2022-12-19T14:57:02;15.70;73.10
48734;DHT22;34530;52.084;5.146;2022-12-19T14:59:32;15.70;73.00
48734;DHT22;34530;52.084;5.146;2022-12-19T15:04:47;15.70;72.90
48734;DHT22;34530;52.084;5.146;2022-12-19T15:07:22;15.70;73.00
48734;DHT22;34530;52.084;5.146;2022-12-19T15:09:59;15.70;73.00
48734;DHT22;34530;52.084;5.146;2022-12-19T15:12:29;15.70;73.10
48734;DHT22;34530;52.084;5.146;2022-12-19T15:15:22;15.70;73.10
48734;DHT22;34530;52.084;5.146;2022-12-19T15:17:51;15.60;73.10
48734;DHT22;34530;52.084;5.146;2022-12-19T15:20:17;15.60;73.20
48734;DHT22;34530;52.084;5.146;2022-12-19T15:22:43;15.70;73.30
48734;DHT22;34530;52.084;5.146;2022-12-19T15:25:14;15.70;73.30
48734;DHT22;34530;52.084;5.146;2022-12-19T15:27:42;15.60;73.20
48734;DHT22;34530;52.084;5.146;2022-12-19T15:30:17;15.60;73.20
48734;DHT22;34530;52.084;5.146;2022-12-19T15:32:43;15.60;73.20
48734;DHT22;34530;52.084;5.146;2022-12-19T15:35:14;15.60;73.10
48734;DHT22;34530;52.084;5.146;2022-12-19T15:37:39;15.60;73.00
48734;DHT22;34530;52.084;5.146;2022-12-19T15:40:06;15.60;73.00
48734;DHT22;34530;52.084;5.146;2022-12-19T15:42:32;15.60;73.00
48734;DHT22;34530;52.084;5.146;2022-12-19T15:44:59;15.60;72.90
48734;DHT22;34530;52.084;5.146;2022-12-19T15:47:33;15.60;72.90
48734;DHT22;34530;52.084;5.146;2022-12-19T15:50:00;15.60;73.70
48734;DHT22;34530;52.084;5.146;2022-12-19T15:52:31;15.60;72.90
48734;DHT22;34530;52.084;5.146;2022-12-19T15:54:56;15.70;72.90
48734;DHT22;34530;52.084;5.146;2022-12-19T15:57:47;15.60;72.90
48734;DHT22;34530;52.084;5.146;2022-12-19T16:00:22;15.60;72.90
48734;DHT22;34530;52.084;5.146;2022-12-19T16:02:50;15.60;73.10
48734;DHT22;34530;52.084;5.146;2022-12-19T16:05:17;15.60;73.20
48734;DHT22;34530;52.084;5.146;2022-12-19T16:07:43;15.60;73.30
48734;DHT22;34530;52.084;5.146;2022-12-19T16:10:10;15.60;73.40
48734;DHT22;34530;52.084;5.146;2022-12-19T16:12:42;15.60;73.50
48734;DHT22;34530;52.084;5.146;2022-12-19T16:15:33;15.60;73.60
48734;DHT22;34530;52.084;5.146;2022-12-19T16:18:01;15.60;73.60
48734;DHT22;34530;52.084;5.146;2022-12-19T16:20:32;15.60;73.80
48734;DHT22;34530;52.084;5.146;2022-12-19T16:23:02;15.60;73.80
48734;DHT22;34530;52.084;5.146;2022-12-19T16:25:42;15.60;73.80
48734;DHT22;34530;52.084;5.146;2022-12-19T16:28:19;15.60;73.80
48734;DHT22;34530;52.084;5.146;2022-12-19T16:30:45;15.60;73.70
48734;DHT22;34530;52.084;5.146;2022-12-19T16:33:23;15.60;73.80
48734;DHT22;34530;52.084;5.146;2022-12-19T16:35:50;15.60;73.80
48734;DHT22;34530;52.084;5.146;2022-12-19T16:38:16;15.60;73.80
48734;DHT22;34530;52.084;5.146;2022-12-19T16:40:42;15.60;73.90
48734;DHT22;34530;52.084;5.146;2022-12-19T16:43:29;15.60;73.90
48734;DHT22;34530;52.084;5.146;2022-12-19T16:45:55;15.60;73.90
48734;DHT22;34530;52.084;5.146;2022-12-19T16:48:24;15.60;73.90
48734;DHT22;34530;52.084;5.146;2022-12-19T16:50:50;15.60;74.10
48734;DHT22;34530;52.084;5.146;2022-12-19T16:53:16;15.60;74.30
48734;DHT22;34530;52.084;5.146;2022-12-19T16:55:42;15.60;74.40
48734;DHT22;34530;52.084;5.146;2022-12-19T16:58:20;15.60;74.50
48734;DHT22;34530;52.084;5.146;2022-12-19T17:00:47;15.60;74.70
48734;DHT22;34530;52.084;5.146;2022-12-19T17:03:39;15.70;74.90
48734;DHT22;34530;52.084;5.146;2022-12-19T17:06:08;15.70;75.10
48734;DHT22;34530;52.084;5.146;2022-12-19T17:08:35;15.70;75.20
48734;DHT22;34530;52.084;5.146;2022-12-19T17:11:00;15.70;75.30
48734;DHT22;34530;52.084;5.146;2022-12-19T17:13:26;15.80;75.50
48734;DHT22;34530;52.084;5.146;2022-12-19T17:15:52;15.80;75.50
48734;DHT22;34530;52.084;5.146;2022-12-19T17:18:39;15.80;75.30
48734;DHT22;34530;52.084;5.146;2022-12-19T17:21:06;15.80;75.00
48734;DHT22;34530;52.084;5.146;2022-12-19T17:23:32;15.80;74.70
48734;DHT22;34530;52.084;5.146;2022-12-19T17:25:59;15.80;74.50
48734;DHT22;34530;52.084;5.146;2022-12-19T17:28:26;15.80;74.30
48734;DHT22;34530;52.084;5.146;2022-12-19T17:30:54;15.80;74.20
48734;DHT22;34530;52.084;5.146;2022-12-19T17:33:31;15.80;74.00
48734;DHT22;34530;52.084;5.146;2022-12-19T17:36:02;15.80;74.00
48734;DHT22;34530;52.084;5.146;2022-12-19T17:38:27;15.80;73.90
48734;DHT22;34530;52.084;5.146;2022-12-19T17:40:53;15.70;73.70
48734;DHT22;34530;52.084;5.146;2022-12-19T17:43:19;15.70;73.60
48734;DHT22;34530;52.084;5.146;2022-12-19T17:45:44;15.70;73.60
48734;DHT22;34530;52.084;5.146;2022-12-19T17:48:30;15.70;73.50
48734;DHT22;34530;52.084;5.146;2022-12-19T17:50:57;15.70;73.40
48734;DHT22;34530;52.084;5.146;2022-12-19T17:53:23;15.70;73.50
48734;DHT22;34530;52.084;5.146;2022-12-19T17:55:48;15.70;73.40